New Milltown, Pennsylvania
Current Conditions -  °F | °C
As of 2:35 PM on Thursday 27 Nov 2014 (Local Time) from KMQS Reporting Station
Overcast Overcast  
Wind Chill: 28°   Ceiling: 5000
Heat Index: 36°   Visibility: 10mi
Dew Point: 28°   Wind: 10mph
Humidity: 75%   Direction: 320°NW
Pressure: 30.02"   Gusts: NA
Location:  40.0127°N, 76.0424°W
Report Text: KMQS 271935Z AUTO 32009KT 10SM FEW039 OVC050 02/M02 A3002 RMK AO2
Loading
Personal Weather Stations






























Interactive Weather Map New forecast layout! Learn more

10-Day Weather Forecast

Advertisements
Track Severe Weather on mobile